createdAt,value
2022-11-09T00:00:43.051Z,100119.41
2022-11-09T00:03:11.331Z,100117.75
2022-11-09T00:05:39.361Z,100110.44
2022-11-09T00:08:08.082Z,100111.59
2022-11-09T00:10:36.026Z,100102.81
2022-11-09T00:13:05.554Z,100096.81
2022-11-09T00:15:33.448Z,100102.00
2022-11-09T00:18:02.858Z,100099.28
2022-11-09T00:20:30.687Z,100093.81
2022-11-09T00:22:58.552Z,100085.66
2022-11-09T00:25:26.380Z,100095.50
2022-11-09T00:27:54.449Z,100089.69
2022-11-09T00:30:23.523Z,100080.44
2022-11-09T00:32:51.355Z,100092.16
2022-11-09T00:35:19.666Z,100075.00
2022-11-09T00:37:47.479Z,100073.69
2022-11-09T00:40:15.573Z,100084.59
2022-11-09T00:42:43.267Z,100075.56
2022-11-09T00:45:11.324Z,100070.97
2022-11-09T00:47:40.455Z,100071.53
2022-11-09T00:50:09.132Z,100058.13
2022-11-09T00:52:36.806Z,100062.53
2022-11-09T00:55:05.192Z,100061.22
2022-11-09T00:57:33.099Z,100061.47
2022-11-09T01:00:00.839Z,100066.06
2022-11-09T01:02:28.517Z,100060.63
2022-11-09T01:04:57.591Z,100069.03
2022-11-09T01:07:25.297Z,100067.72
2022-11-09T01:09:52.955Z,100074.50
2022-11-09T01:12:20.728Z,100068.22
2022-11-09T01:14:48.386Z,100074.25
2022-11-09T01:17:16.097Z,100070.72
2022-11-09T01:19:44.054Z,100072.03
2022-11-09T01:22:13.122Z,100062.53
2022-11-09T01:24:40.878Z,100066.06
2022-11-09T01:27:08.573Z,100059.00
2022-11-09T01:29:36.283Z,100066.06
2022-11-09T01:32:04.517Z,100060.63
2022-11-09T01:34:32.462Z,100067.16
2022-11-09T01:37:00.213Z,100065.75
2022-11-09T01:39:29.202Z,100063.84
2022-11-09T01:41:56.881Z,100054.59
2022-11-09T01:44:28.454Z,100055.66
2022-11-09T01:46:58.871Z,100057.31
2022-11-09T01:49:40.689Z,100065.16
2022-11-09T01:52:11.418Z,100064.34
2022-11-09T01:54:42.773Z,100058.88
2022-11-09T01:57:12.931Z,100058.28
2022-11-09T01:59:48.485Z,100052.59
2022-11-09T02:02:16.834Z,100049.03
2022-11-09T02:04:48.433Z,100053.19
2022-11-09T02:07:16.352Z,100054.00
2022-11-09T02:09:50.540Z,100052.03
2022-11-09T02:12:19.381Z,100051.28
2022-11-09T02:14:50.681Z,100054.84
2022-11-09T02:17:19.566Z,100053.69
2022-11-09T02:19:47.258Z,100046.06
2022-11-09T02:22:16.512Z,100056.16
2022-11-09T02:24:44.233Z,100061.63
2022-11-09T02:27:11.888Z,100054.00
2022-11-09T02:29:42.561Z,100053.75
2022-11-09T02:32:14.673Z,100045.94
2022-11-09T02:34:42.381Z,100040.00
2022-11-09T02:37:10.159Z,100041.63
2022-11-09T02:39:39.935Z,100057.19
2022-11-09T02:42:11.485Z,100052.78
2022-11-09T02:44:42.710Z,100050.06
2022-11-09T02:47:10.551Z,100050.31
2022-11-09T02:49:38.295Z,100046.53
2022-11-09T02:52:05.978Z,100047.59
2022-11-09T02:54:33.658Z,100059.81
2022-11-09T02:57:02.686Z,100044.25
2022-11-09T02:59:30.394Z,100038.81
2022-11-09T03:01:58.135Z,100043.19
2022-11-09T03:04:25.921Z,100045.69
2022-11-09T03:06:53.732Z,100038.59
2022-11-09T03:09:21.533Z,100036.94
2022-11-09T03:11:49.537Z,100037.75
2022-11-09T03:14:18.608Z,100040.47
2022-11-09T03:16:50.186Z,100056.47
2022-11-09T03:19:18.537Z,100049.88
2022-11-09T03:21:46.255Z,100049.53
2022-11-09T03:24:13.968Z,100055.00
2022-11-09T03:26:41.686Z,100056.31
2022-11-09T03:29:09.421Z,100052.47
2022-11-09T03:31:39.677Z,100048.69
2022-11-09T03:34:07.339Z,100063.63
2022-11-09T03:36:35.037Z,100058.19
2022-11-09T03:39:02.834Z,100050.50
2022-11-09T03:41:30.531Z,100054.03
2022-11-09T03:43:58.161Z,100044.81
2022-11-09T03:46:25.882Z,100050.00
2022-11-09T03:48:54.914Z,100041.00
2022-11-09T03:51:22.614Z,100039.59
2022-11-09T03:53:50.394Z,100044.47
2022-11-09T03:56:18.111Z,100039.75
2022-11-09T03:58:45.763Z,100042.47
2022-11-09T04:01:13.723Z,100054.44
2022-11-09T04:03:41.555Z,100047.91
2022-11-09T04:06:10.751Z,100044.34
2022-11-09T04:08:38.471Z,100046.50
2022-11-09T04:11:06.179Z,100046.00
2022-11-09T04:13:33.957Z,100040.56
2022-11-09T04:16:01.686Z,100041.06
2022-11-09T04:18:29.398Z,100049.94
2022-11-09T04:20:59.053Z,100040.69
2022-11-09T04:23:28.110Z,100036.31
2022-11-09T04:25:55.803Z,100049.94
2022-11-09T04:28:23.470Z,100050.78
2022-11-09T04:30:51.240Z,100057.53
2022-11-09T04:33:19.258Z,100058.34
2022-11-09T04:35:47.216Z,100058.34
2022-11-09T04:38:15.393Z,100059.09
2022-11-09T04:40:44.440Z,100057.19
2022-11-09T04:43:15.863Z,100050.31
2022-11-09T04:45:44.208Z,100053.41
2022-11-09T04:48:12.897Z,100050.22
2022-11-09T04:50:40.645Z,100051.38
2022-11-09T04:53:10.014Z,100056.84
2022-11-09T04:55:38.179Z,100058.84
2022-11-09T04:58:07.711Z,100047.84
2022-11-09T05:00:35.919Z,100040.16
2022-11-09T05:03:05.735Z,100046.44
2022-11-09T05:05:34.354Z,100045.63
2022-11-09T05:08:02.180Z,100039.91
2022-11-09T05:10:30.294Z,100044.06
2022-11-09T05:12:58.865Z,100043.47
2022-11-09T05:15:28.549Z,100046.91
2022-11-09T05:17:56.712Z,100042.28
2022-11-09T05:20:25.308Z,100047.94
2022-11-09T05:23:10.663Z,100046.91
2022-11-09T05:25:38.373Z,100036.25
2022-11-09T05:28:06.589Z,100043.31
2022-11-09T05:30:37.962Z,100045.72
2022-11-09T05:33:06.424Z,100056.63
2022-11-09T05:35:34.509Z,100055.31
2022-11-09T05:38:02.426Z,100058.63
2022-11-09T05:40:30.178Z,100058.25
2022-11-09T05:42:57.934Z,100064.53
2022-11-09T05:45:43.375Z,100065.09
2022-11-09T05:48:15.035Z,100061.56
2022-11-09T05:50:43.435Z,100069.03
2022-11-09T05:53:12.306Z,100081.13
2022-11-09T05:55:40.631Z,100075.56
2022-11-09T05:58:08.955Z,100077.81
2022-11-09T06:00:38.936Z,100080.28
2022-11-09T06:03:11.259Z,100078.16
2022-11-09T06:05:42.107Z,100090.13
2022-11-09T06:08:15.526Z,100085.88
2022-11-09T06:10:43.797Z,100094.16
2022-11-09T06:13:12.084Z,100094.03
2022-11-09T06:15:39.984Z,100096.75
2022-11-09T06:18:08.166Z,100099.22
2022-11-09T06:20:36.343Z,100097.34
2022-11-09T06:23:05.639Z,100097.69
2022-11-09T06:25:34.134Z,100095.19
2022-11-09T06:28:02.599Z,100092.72
2022-11-09T06:30:30.876Z,100093.22
2022-11-09T06:32:59.968Z,100085.28
2022-11-09T06:35:27.941Z,100086.09
2022-11-09T06:37:58.977Z,100095.31
2022-11-09T06:40:29.208Z,100093.66
2022-11-09T06:43:01.137Z,100101.94
2022-11-09T06:45:30.357Z,100107.28
2022-11-09T06:47:58.838Z,100105.28
2022-11-09T06:50:27.983Z,100107.06
2022-11-09T06:52:58.308Z,100116.66
2022-11-09T06:55:26.281Z,100111.22
2022-11-09T06:57:56.049Z,100108.50
2022-11-09T07:00:24.208Z,100118.91
2022-11-09T07:02:52.537Z,100120.69
2022-11-09T07:05:20.976Z,100119.03
2022-11-09T07:07:49.341Z,100114.03
2022-11-09T07:10:17.903Z,100124.72
2022-11-09T07:12:45.907Z,100124.47
2022-11-09T07:15:15.061Z,100122.44
2022-11-09T07:17:43.087Z,100124.09
2022-11-09T07:20:14.610Z,100131.47
2022-11-09T07:22:42.981Z,100123.19
2022-11-09T07:25:16.128Z,100124.47
2022-11-09T07:27:44.655Z,100126.81
2022-11-09T07:30:12.973Z,100130.63
2022-11-09T07:35:31.086Z,100128.25
2022-11-09T07:38:01.235Z,100131.13
2022-11-09T07:40:30.749Z,100127.91
2022-11-09T07:42:59.554Z,100126.84
2022-11-09T07:45:29.016Z,100122.31
2022-11-09T07:47:59.654Z,100123.84
2022-11-09T07:50:28.653Z,100125.03
2022-11-09T07:52:56.924Z,100128.25
2022-11-09T07:55:24.880Z,100129.91
2022-11-09T07:57:56.436Z,100139.16
2022-11-09T08:00:24.500Z,100141.38
2022-11-09T08:02:53.283Z,100132.28
2022-11-09T08:05:22.699Z,100144.22
2022-11-09T08:07:55.591Z,100151.94
2022-11-09T08:10:23.650Z,100153.59
2022-11-09T08:12:55.900Z,100157.72
2022-11-09T08:15:24.133Z,100155.38
2022-11-09T08:17:52.178Z,100160.81
2022-11-09T08:20:22.238Z,100166.88
2022-11-09T08:22:50.045Z,100159.75
2022-11-09T08:25:18.052Z,100166.63
2022-11-09T08:27:45.845Z,100172.53
2022-11-09T08:30:16.045Z,100166.88
2022-11-09T08:32:45.301Z,100175.50
2022-11-09T08:35:17.554Z,100183.41
2022-11-09T08:37:47.630Z,100175.03
2022-11-09T08:40:17.399Z,100168.88
2022-11-09T08:42:45.164Z,100175.38
2022-11-09T08:45:13.080Z,100176.69
2022-11-09T08:47:41.408Z,100176.09
2022-11-09T08:50:11.255Z,100175.16
2022-11-09T08:52:39.462Z,100171.97
2022-11-09T08:55:09.525Z,100174.47
2022-11-09T08:57:37.374Z,100168.31
2022-11-09T09:00:06.765Z,100170.94
2022-11-09T09:02:34.586Z,100177.56
2022-11-09T09:05:02.276Z,100177.19
2022-11-09T09:07:30.053Z,100181.22
2022-11-09T09:09:57.889Z,100183.25
2022-11-09T09:12:26.964Z,100189.38
2022-11-09T09:14:55.222Z,100189.50
2022-11-09T09:17:23.066Z,100191.06
2022-11-09T09:19:50.780Z,100187.84
2022-11-09T09:22:18.641Z,100188.31
2022-11-09T09:24:46.364Z,100179.31
2022-11-09T09:27:14.241Z,100186.88
2022-11-09T09:29:43.303Z,100185.44
2022-11-09T09:32:11.085Z,100193.13
2022-11-09T09:34:38.821Z,100204.44
2022-11-09T09:37:06.597Z,100205.38
2022-11-09T09:39:34.378Z,100204.44
2022-11-09T09:42:05.657Z,100205.38
2022-11-09T09:44:37.997Z,100204.31
2022-11-09T09:47:13.614Z,100212.25
2022-11-09T09:49:46.355Z,100204.66
2022-11-09T09:52:22.737Z,100217.81
2022-11-09T09:54:58.951Z,100220.66
2022-11-09T09:57:29.426Z,100220.19
2022-11-09T10:00:02.448Z,100227.41
2022-11-09T10:02:35.358Z,100228.56
2022-11-09T10:05:08.756Z,100232.16
2022-11-09T10:07:42.118Z,100228.00
2022-11-09T10:10:32.864Z,100225.41
2022-11-09T10:13:27.308Z,100220.38
2022-11-09T10:15:59.848Z,100217.66
2022-11-09T10:18:41.930Z,100222.81
2022-11-09T10:21:32.024Z,100221.59
2022-11-09T10:24:20.956Z,100227.66
2022-11-09T10:26:52.178Z,100219.97
2022-11-09T10:29:24.094Z,100227.28
2022-11-09T10:31:53.987Z,100224.66
2022-11-09T10:34:29.162Z,100222.53
2022-11-09T10:37:05.591Z,100213.50
2022-11-09T10:39:41.917Z,100222.91
2022-11-09T10:42:12.065Z,100204.19
2022-11-09T10:44:39.827Z,100212.72
2022-11-09T10:47:11.116Z,100193.78
2022-11-09T10:49:41.125Z,100199.59
2022-11-09T10:52:31.660Z,100210.00
2022-11-09T10:55:22.718Z,100207.03
2022-11-09T10:57:57.835Z,100221.13
2022-11-09T11:00:25.847Z,100206.41
2022-11-09T11:02:54.505Z,100216.16
2022-11-09T11:05:32.759Z,100214.84
2022-11-09T11:08:21.586Z,100217.44
2022-11-09T11:10:58.515Z,100216.75
2022-11-09T11:13:34.744Z,100208.81
2022-11-09T11:16:02.636Z,100215.19
2022-11-09T11:18:37.934Z,100208.69
2022-11-09T11:21:18.396Z,100200.50
2022-11-09T11:24:05.088Z,100210.78
2022-11-09T11:26:38.844Z,100215.44
2022-11-09T11:29:15.612Z,100215.88
2022-11-09T11:31:43.310Z,100221.25
2022-11-09T11:34:31.983Z,100210.09
2022-11-09T11:37:18.364Z,100209.03
2022-11-09T11:39:57.435Z,100219.56
2022-11-09T11:42:47.539Z,100219.81
2022-11-09T11:45:40.009Z,100208.28
2022-11-09T11:48:51.584Z,100193.72
2022-11-09T11:51:25.148Z,100199.16
2022-11-09T11:54:07.363Z,100205.19
2022-11-09T11:56:39.454Z,100205.78
2022-11-09T11:59:36.130Z,100199.03
2022-11-09T12:02:28.329Z,100202.78
2022-11-09T12:05:32.386Z,100204.19
2022-11-09T12:08:06.267Z,100212.97
2022-11-09T12:10:47.250Z,100202.03
2022-11-09T12:13:29.777Z,100196.13
2022-11-09T12:16:04.601Z,100207.50
2022-11-09T12:18:44.703Z,100214.38
2022-11-09T12:21:22.349Z,100214.34
2022-11-09T12:24:07.729Z,100208.13
2022-11-09T12:27:04.717Z,100206.94
2022-11-09T12:29:44.637Z,100209.34
2022-11-09T12:32:23.881Z,100199.03
2022-11-09T12:34:57.982Z,100198.22
2022-11-09T12:37:30.173Z,100201.03
2022-11-09T12:40:05.957Z,100207.22
2022-11-09T12:42:39.969Z,100212.34
2022-11-09T12:45:27.324Z,100209.47
2022-11-09T12:47:59.384Z,100210.53
2022-11-09T12:50:29.021Z,100208.94
2022-11-09T12:52:57.267Z,100200.59
2022-11-09T12:55:34.453Z,100207.88
2022-11-09T12:58:03.915Z,100208.47
2022-11-09T13:00:50.234Z,100204.25
2022-11-09T13:03:25.599Z,100198.13
2022-11-09T13:06:16.507Z,100200.69
2022-11-09T13:09:00.746Z,100191.78
2022-11-09T13:11:37.643Z,100201.41
2022-11-09T13:14:33.793Z,100200.66
2022-11-09T13:17:03.723Z,100200.31
2022-11-09T13:19:51.196Z,100200.09
2022-11-09T13:22:56.178Z,100203.63
2022-11-09T13:25:53.767Z,100194.28
2022-11-09T13:28:58.375Z,100205.22
2022-11-09T13:32:02.310Z,100207.03
2022-11-09T13:34:41.195Z,100208.00
2022-11-09T13:37:49.171Z,100212.50
2022-11-09T13:40:40.155Z,100209.44
2022-11-09T13:43:17.531Z,100215.84
2022-11-09T13:45:47.009Z,100215.28
2022-11-09T13:48:31.421Z,100221.31
2022-11-09T13:51:01.559Z,100225.47
2022-11-09T13:53:32.070Z,100223.31
2022-11-09T13:56:00.103Z,100226.31
2022-11-09T13:58:34.419Z,100229.03
2022-11-09T14:01:02.248Z,100227.22
2022-11-09T14:03:33.779Z,100224.75
2022-11-09T14:06:03.575Z,100224.63
2022-11-09T14:08:40.243Z,100226.19
2022-11-09T14:11:35.840Z,100230.25
2022-11-09T14:14:18.278Z,100233.78
2022-11-09T14:16:53.638Z,100232.72
2022-11-09T14:19:31.051Z,100234.03
2022-11-09T14:21:58.945Z,100237.47
2022-11-09T14:24:30.820Z,100242.34
2022-11-09T14:27:04.156Z,100245.78
2022-11-09T14:29:33.039Z,100245.22
2022-11-09T14:32:02.652Z,100244.06
2022-11-09T14:34:31.764Z,100247.84
2022-11-09T14:37:03.191Z,100253.53
2022-11-09T14:39:34.989Z,100256.03
2022-11-09T14:42:02.787Z,100249.41
2022-11-09T14:44:35.608Z,100267.06
2022-11-09T14:47:04.548Z,100270.63
2022-11-09T14:49:33.789Z,100274.31
2022-11-09T14:52:02.245Z,100278.34
2022-11-09T14:54:30.885Z,100281.91
2022-11-09T14:56:58.959Z,100288.41
2022-11-09T14:59:31.508Z,100294.72
2022-11-09T15:02:02.164Z,100293.88
2022-11-09T15:04:30.109Z,100299.22
2022-11-09T15:07:03.008Z,100298.03
2022-11-09T15:09:35.717Z,100294.47
2022-11-09T15:12:03.970Z,100297.78
2022-11-09T15:14:34.396Z,100296.59
2022-11-09T15:17:12.876Z,100294.59
2022-11-09T15:19:50.218Z,100291.50
2022-11-09T15:22:48.031Z,100288.19
2022-11-09T15:25:31.973Z,100291.75
2022-11-09T15:28:21.832Z,100292.81
2022-11-09T15:31:07.821Z,100293.88
2022-11-09T15:33:46.710Z,100290.47
2022-11-09T15:36:30.821Z,100290.47
2022-11-09T15:39:12.718Z,100300.41
2022-11-09T15:41:40.410Z,100292.13
2022-11-09T15:44:08.961Z,100298.88
2022-11-09T15:46:41.003Z,100307.03
2022-11-09T15:49:16.549Z,100314.13
2022-11-09T15:51:45.548Z,100317.69
2022-11-09T15:54:14.788Z,100320.66
2022-11-09T15:56:42.944Z,100321.00
2022-11-09T15:59:18.796Z,100322.53
2022-11-09T16:01:46.509Z,100328.09
2022-11-09T16:04:14.566Z,100325.19
2022-11-09T16:06:46.373Z,100327.34
2022-11-09T16:09:17.753Z,100338.09
2022-11-09T16:11:45.385Z,100335.84
2022-11-09T16:14:14.790Z,100334.41
2022-11-09T16:16:42.551Z,100345.91
2022-11-09T16:19:14.651Z,100354.78
2022-11-09T16:21:43.222Z,100357.72
2022-11-09T16:24:10.910Z,100359.97
2022-11-09T16:26:39.952Z,100355.59
2022-11-09T16:29:07.638Z,100364.81
2022-11-09T16:31:50.960Z,100363.03
2022-11-09T16:34:19.421Z,100354.03
2022-11-09T16:36:52.470Z,100354.88
2022-11-09T16:39:26.797Z,100359.94
2022-11-09T16:41:56.544Z,100359.13
2022-11-09T16:44:25.226Z,100359.94
2022-11-09T16:46:53.037Z,100363.34
2022-11-09T16:49:20.860Z,100369.78
2022-11-09T16:51:48.636Z,100372.72
2022-11-09T16:54:16.450Z,100374.53
2022-11-09T16:56:44.617Z,100377.00
2022-11-09T16:59:13.837Z,100376.41
2022-11-09T17:01:41.666Z,100368.50
2022-11-09T17:04:09.520Z,100385.25
2022-11-09T17:06:37.488Z,100389.81
2022-11-09T17:09:05.380Z,100384.97
2022-11-09T17:11:33.485Z,100390.03
2022-11-09T17:14:01.901Z,100394.34
2022-11-09T17:16:31.069Z,100399.44
2022-11-09T17:18:59.953Z,100398.59
2022-11-09T17:21:29.633Z,100394.16
2022-11-09T17:23:58.053Z,100410.03
2022-11-09T17:26:26.570Z,100413.22
2022-11-09T17:28:54.327Z,100408.59
2022-11-09T17:31:24.335Z,100412.28
2022-11-09T17:33:58.342Z,100405.56
2022-11-09T17:36:56.956Z,100408.50
2022-11-09T17:39:16.414Z,100413.31
2022-11-09T17:41:44.728Z,100427.84
2022-11-09T17:44:12.629Z,100423.44
2022-11-09T17:46:40.485Z,100425.81
2022-11-09T17:49:10.630Z,100424.47
2022-11-09T17:51:38.969Z,100430.75
2022-11-09T17:54:06.967Z,100439.72
2022-11-09T17:56:38.118Z,100446.69
2022-11-09T17:59:06.578Z,100449.88
2022-11-09T18:01:40.809Z,100457.91
2022-11-09T18:04:14.836Z,100454.72
2022-11-09T18:06:43.107Z,100460.00
2022-11-09T18:09:39.641Z,100470.91
2022-11-09T18:11:59.618Z,100457.66
2022-11-09T18:14:27.524Z,100468.63
2022-11-09T18:16:59.606Z,100470.31
2022-11-09T18:19:29.042Z,100471.13
2022-11-09T18:21:56.931Z,100475.44
2022-11-09T18:24:24.783Z,100485.88
2022-11-09T18:26:52.665Z,100485.88
2022-11-09T18:29:20.694Z,100479.13
2022-11-09T18:31:49.477Z,100476.88
2022-11-09T18:34:17.373Z,100484.16
2022-11-09T18:36:46.522Z,100485.19
2022-11-09T18:39:16.015Z,100489.22
2022-11-09T18:41:44.054Z,100490.66
2022-11-09T18:44:12.145Z,100484.75
2022-11-09T18:46:39.967Z,100498.44
2022-11-09T18:49:13.903Z,100498.03
2022-11-09T18:51:44.844Z,100491.22
2022-11-09T18:54:14.209Z,100495.38
2022-11-09T18:56:43.754Z,100495.22
2022-11-09T18:59:13.021Z,100501.91
2022-11-09T19:01:40.913Z,100501.53
2022-11-09T19:04:10.796Z,100491.91
2022-11-09T19:06:38.554Z,100496.44
2022-11-09T19:09:24.881Z,100507.53
2022-11-09T19:11:53.945Z,100506.94
2022-11-09T19:14:21.815Z,100506.00
2022-11-09T19:16:49.543Z,100518.41
2022-11-09T19:19:17.600Z,100526.97
2022-11-09T19:21:48.983Z,100525.53
2022-11-09T19:24:18.754Z,100528.00
2022-11-09T19:26:46.783Z,100535.59
2022-11-09T19:29:16.737Z,100533.09
2022-11-09T19:31:48.486Z,100542.72
2022-11-09T19:34:18.100Z,100544.03
2022-11-09T19:36:46.726Z,100545.97
2022-11-09T19:39:15.702Z,100559.59
2022-11-09T19:41:44.321Z,100547.91
2022-11-09T19:44:14.431Z,100558.78
2022-11-09T19:46:43.702Z,100562.97
2022-11-09T19:49:11.437Z,100568.41
2022-11-09T19:51:40.227Z,100565.69
2022-11-09T19:54:08.283Z,100578.47
2022-11-09T19:56:37.171Z,100580.09
2022-11-09T19:59:05.679Z,100583.88
2022-11-09T20:01:33.639Z,100588.53
2022-11-09T20:04:07.684Z,100595.19
2022-11-09T20:06:39.326Z,100597.06
2022-11-09T20:09:07.394Z,100601.69
2022-11-09T20:11:52.741Z,100617.72
2022-11-09T20:14:21.107Z,100608.91
2022-11-09T20:16:49.646Z,100609.69
2022-11-09T20:19:18.823Z,100613.50
2022-11-09T20:21:46.836Z,100615.34
2022-11-09T20:24:17.188Z,100621.78
2022-11-09T20:26:45.057Z,100623.25
2022-11-09T20:29:12.846Z,100624.31
2022-11-09T20:31:40.630Z,100630.81
2022-11-09T20:34:11.574Z,100638.97
2022-11-09T20:36:40.912Z,100641.88
2022-11-09T20:39:08.853Z,100633.94
2022-11-09T20:41:36.704Z,100649.06
2022-11-09T20:44:04.847Z,100645.34
2022-11-09T20:46:35.997Z,100651.88
2022-11-09T20:49:07.121Z,100646.88
2022-11-09T20:51:35.517Z,100647.91
2022-11-09T20:54:07.578Z,100659.47
2022-11-09T20:56:37.010Z,100667.78
2022-11-09T20:59:05.268Z,100665.47
2022-11-09T21:01:33.539Z,100664.66
2022-11-09T21:04:01.533Z,100670.31
2022-11-09T21:06:29.756Z,100678.66
2022-11-09T21:08:58.185Z,100671.34
2022-11-09T21:11:28.719Z,100677.38
2022-11-09T21:13:56.742Z,100679.72
2022-11-09T21:16:25.094Z,100681.00
2022-11-09T21:18:53.185Z,100686.44
2022-11-09T21:21:22.836Z,100686.63
2022-11-09T21:24:08.497Z,100688.50
2022-11-09T21:26:55.219Z,100692.25
2022-11-09T21:29:42.946Z,100693.16
2022-11-09T21:32:12.015Z,100698.97
2022-11-09T21:34:40.104Z,100705.69
2022-11-09T21:37:08.246Z,100707.16
2022-11-09T21:39:36.499Z,100717.19
2022-11-09T21:42:06.138Z,100709.28
2022-11-09T21:44:35.573Z,100720.56
2022-11-09T21:47:03.958Z,100727.47
2022-11-09T21:49:31.942Z,100724.31
2022-11-09T21:52:00.327Z,100734.16
2022-11-09T21:54:28.838Z,100730.41
2022-11-09T21:56:57.482Z,100735.84
2022-11-09T21:59:26.614Z,100746.50
2022-11-09T22:01:54.449Z,100739.41
2022-11-09T22:04:22.299Z,100742.13
2022-11-09T22:06:50.137Z,100749.06
2022-11-09T22:09:19.539Z,100751.94
2022-11-09T22:12:05.208Z,100763.47
2022-11-09T22:14:52.341Z,100756.38
2022-11-09T22:17:20.271Z,100759.31
2022-11-09T22:20:14.843Z,100758.28
2022-11-09T22:22:43.191Z,100763.06
2022-11-09T22:25:11.057Z,100773.94
2022-11-09T22:27:38.855Z,100777.91
2022-11-09T22:30:09.376Z,100785.25
2022-11-09T22:32:37.162Z,100782.50
2022-11-09T22:35:05.368Z,100786.72
2022-11-09T22:37:33.110Z,100789.44
2022-11-09T22:40:00.829Z,100788.56
2022-11-09T22:42:28.564Z,100786.91
2022-11-09T22:44:56.381Z,100786.50
2022-11-09T22:47:25.706Z,100794.84
2022-11-09T22:49:53.528Z,100803.22
2022-11-09T22:52:21.251Z,100797.13
2022-11-09T22:54:49.038Z,100803.03
2022-11-09T22:57:16.949Z,100806.16
2022-11-09T22:59:44.713Z,100806.13
2022-11-09T23:02:13.690Z,100810.53
2022-11-09T23:04:42.797Z,100810.75
2022-11-09T23:07:10.571Z,100818.28
2022-11-09T23:09:38.352Z,100825.56
2022-11-09T23:12:06.475Z,100821.59
2022-11-09T23:14:51.817Z,100829.53
2022-11-09T23:17:33.485Z,100828.50
2022-11-09T23:20:02.917Z,100838.75
2022-11-09T23:22:30.873Z,100846.72
2022-11-09T23:25:16.562Z,100850.50
2022-11-09T23:27:44.329Z,100850.91
2022-11-09T23:30:14.768Z,100850.91
2022-11-09T23:32:46.840Z,100859.69
2022-11-09T23:35:16.464Z,100858.44
2022-11-09T23:37:44.290Z,100865.97
2022-11-09T23:40:13.195Z,100862.84
2022-11-09T23:42:43.399Z,100871.00
2022-11-09T23:45:11.335Z,100883.13
2022-11-09T23:47:39.035Z,100886.88
2022-11-09T23:50:07.673Z,100879.53
2022-11-09T23:52:36.749Z,100886.44
2022-11-09T23:55:04.854Z,100888.56
2022-11-09T23:57:32.523Z,100896.72
